createdAt,value
2022-11-09T00:01:03.656Z,100330.72
2022-11-09T00:03:31.998Z,100326.19
2022-11-09T00:06:01.181Z,100330.34
2022-11-09T00:08:30.751Z,100324.41
2022-11-09T00:11:04.269Z,100331.50
2022-11-09T00:13:32.409Z,100334.53
2022-11-09T00:16:02.197Z,100328.38
2022-11-09T00:18:30.593Z,100325.19
2022-11-09T00:20:58.850Z,100325.66
2022-11-09T00:23:26.777Z,100325.13
2022-11-09T00:25:56.169Z,100312.25
2022-11-09T00:28:24.234Z,100308.22
2022-11-09T00:30:52.111Z,100314.94
2022-11-09T00:33:20.680Z,100304.56
2022-11-09T00:35:49.334Z,100304.56
2022-11-09T00:38:17.428Z,100301.22
2022-11-09T00:41:01.882Z,100300.41
2022-11-09T00:43:40.979Z,100303.38
2022-11-09T00:46:17.074Z,100300.00
2022-11-09T00:49:17.256Z,100298.50
2022-11-09T00:51:59.415Z,100303.00
2022-11-09T00:54:45.335Z,100301.59
2022-11-09T00:57:30.591Z,100298.03
2022-11-09T01:00:10.109Z,100298.31
2022-11-09T01:02:43.096Z,100293.28
2022-11-09T01:05:24.157Z,100293.28
2022-11-09T01:07:53.055Z,100305.06
2022-11-09T01:10:21.274Z,100296.63
2022-11-09T01:12:50.690Z,100297.06
2022-11-09T01:15:18.693Z,100293.16
2022-11-09T01:17:47.721Z,100296.03
2022-11-09T01:20:18.487Z,100308.59
2022-11-09T01:22:46.757Z,100307.16
2022-11-09T01:25:15.516Z,100304.50
2022-11-09T01:27:44.008Z,100300.34
2022-11-09T01:30:21.408Z,100301.81
2022-11-09T01:33:06.904Z,100303.00
2022-11-09T01:35:54.671Z,100310.94
2022-11-09T01:38:38.235Z,100300.91
2022-11-09T01:41:31.206Z,100308.19
2022-11-09T01:44:21.449Z,100308.25
2022-11-09T01:47:20.860Z,100314.97
2022-11-09T01:50:09.277Z,100315.97
2022-11-09T01:53:03.073Z,100330.06
2022-11-09T01:55:43.837Z,100321.69
2022-11-09T01:58:16.406Z,100325.00
2022-11-09T02:00:48.747Z,100301.19
2022-11-09T02:03:23.104Z,100297.88
2022-11-09T02:05:52.495Z,100296.22
2022-11-09T02:08:26.196Z,100296.19
2022-11-09T02:11:02.175Z,100283.59
2022-11-09T02:13:31.717Z,100282.34
2022-11-09T02:16:04.267Z,100287.44
2022-11-09T02:18:35.553Z,100279.44
2022-11-09T02:21:26.242Z,100275.44
2022-11-09T02:24:01.997Z,100290.03
2022-11-09T02:26:50.540Z,100292.31
2022-11-09T02:29:35.177Z,100284.22
2022-11-09T02:32:41.266Z,100293.75
2022-11-09T02:35:25.615Z,100292.34
2022-11-09T02:38:25.876Z,100292.91
2022-11-09T02:41:33.192Z,100302.50
2022-11-09T02:44:12.453Z,100303.78
2022-11-09T02:46:48.728Z,100299.81
2022-11-09T02:49:18.833Z,100299.31
2022-11-09T02:51:47.168Z,100304.38
2022-11-09T02:54:16.602Z,100301.06
2022-11-09T02:56:44.576Z,100298.19
2022-11-09T02:59:12.557Z,100294.22
2022-11-09T03:01:41.374Z,100291.16
2022-11-09T03:04:09.406Z,100290.97
2022-11-09T03:06:37.724Z,100294.34
2022-11-09T03:09:13.365Z,100289.44
2022-11-09T03:11:49.060Z,100292.56
2022-11-09T03:14:24.160Z,100290.72
2022-11-09T03:17:07.924Z,100292.91
2022-11-09T03:19:55.657Z,100298.94
2022-11-09T03:22:52.766Z,100299.13
2022-11-09T03:25:28.553Z,100295.72
2022-11-09T03:28:15.696Z,100294.78
2022-11-09T03:31:05.202Z,100293.59
2022-11-09T03:33:48.873Z,100296.25
2022-11-09T03:36:31.512Z,100281.63
2022-11-09T03:38:59.635Z,100287.44
2022-11-09T03:41:28.439Z,100293.59
2022-11-09T03:43:57.802Z,100296.34
2022-11-09T03:46:25.893Z,100297.81
2022-11-09T03:48:53.799Z,100304.31
2022-11-09T03:51:21.695Z,100315.38
2022-11-09T03:53:49.614Z,100313.41
2022-11-09T03:56:17.588Z,100320.84
2022-11-09T03:58:45.490Z,100322.97
2022-11-09T04:01:14.903Z,100327.69
2022-11-09T04:03:42.919Z,100329.69
2022-11-09T04:06:10.975Z,100336.72
2022-11-09T04:08:39.346Z,100336.56
2022-11-09T04:11:08.085Z,100323.91
2022-11-09T04:13:36.303Z,100328.72
2022-11-09T04:16:13.718Z,100334.50
2022-11-09T04:18:49.750Z,100331.69
2022-11-09T04:21:23.925Z,100329.03
2022-11-09T04:24:15.493Z,100335.44
2022-11-09T04:26:50.663Z,100322.09
2022-11-09T04:29:18.819Z,100327.63
2022-11-09T04:31:48.734Z,100330.06
2022-11-09T04:34:19.258Z,100331.94
2022-11-09T04:36:47.569Z,100343.09
2022-11-09T04:39:15.610Z,100342.31
2022-11-09T04:41:43.497Z,100344.75
2022-11-09T04:44:11.668Z,100349.28
2022-11-09T04:46:39.609Z,100354.56
2022-11-09T04:49:07.879Z,100357.09
2022-11-09T04:51:37.219Z,100358.31
2022-11-09T04:54:05.396Z,100359.34
2022-11-09T04:56:33.677Z,100363.03
2022-11-09T04:59:01.977Z,100354.25
2022-11-09T05:01:30.561Z,100347.28
2022-11-09T05:03:58.511Z,100358.50
2022-11-09T05:06:37.491Z,100355.69
2022-11-09T05:09:21.273Z,100361.81
2022-11-09T05:12:01.016Z,100360.75
2022-11-09T05:14:34.613Z,100354.50
2022-11-09T05:17:09.372Z,100352.41
2022-11-09T05:19:39.200Z,100353.53
2022-11-09T05:22:21.024Z,100360.97
2022-11-09T05:24:51.992Z,100366.25
2022-11-09T05:27:20.967Z,100371.91
2022-11-09T05:29:48.980Z,100370.59
2022-11-09T05:32:17.004Z,100371.25
2022-11-09T05:34:44.839Z,100377.28
2022-11-09T05:37:12.896Z,100373.13
2022-11-09T05:39:40.939Z,100368.88
2022-11-09T05:42:12.106Z,100383.97
2022-11-09T05:44:44.015Z,100377.47
2022-11-09T05:47:27.244Z,100361.56
2022-11-09T05:53:04.510Z,100376.63
2022-11-09T05:55:53.155Z,100376.25
2022-11-09T05:58:26.242Z,100389.50
2022-11-09T06:01:28.971Z,100384.06
2022-11-09T06:04:06.169Z,100371.94
2022-11-09T06:06:42.447Z,100381.78
2022-11-09T06:09:13.448Z,100388.09
2022-11-09T06:11:41.439Z,100386.22
2022-11-09T06:14:10.746Z,100379.38
2022-11-09T06:16:38.679Z,100385.38
2022-11-09T06:19:06.850Z,100383.88
2022-11-09T06:21:34.752Z,100385.09
2022-11-09T06:24:02.738Z,100386.69
2022-11-09T06:26:30.643Z,100384.25
2022-11-09T06:29:02.890Z,100389.16
2022-11-09T06:31:37.640Z,100389.50
2022-11-09T06:34:17.469Z,100401.28
2022-11-09T06:36:57.592Z,100394.53
2022-11-09T06:39:38.729Z,100400.94
2022-11-09T06:42:22.992Z,100409.41
2022-11-09T06:44:57.393Z,100412.31
2022-11-09T06:47:47.951Z,100415.44
2022-11-09T06:50:26.688Z,100430.47
2022-11-09T06:53:11.378Z,100439.78
2022-11-09T06:55:58.094Z,100430.66
2022-11-09T06:58:26.310Z,100439.31
2022-11-09T07:00:54.320Z,100431.59
2022-11-09T07:03:24.533Z,100437.03
2022-11-09T07:05:53.442Z,100436.28
2022-11-09T07:08:21.786Z,100441.28
2022-11-09T07:10:50.031Z,100436.72
2022-11-09T07:13:20.157Z,100437.88
2022-11-09T07:15:55.009Z,100450.81
2022-11-09T07:18:28.578Z,100445.19
2022-11-09T07:21:00.866Z,100445.38
2022-11-09T07:24:04.591Z,100443.78
2022-11-09T07:26:42.202Z,100454.19
2022-11-09T07:29:27.145Z,100442.94
2022-11-09T07:32:35.475Z,100455.06
2022-11-09T07:35:22.256Z,100456.66
2022-11-09T07:38:03.908Z,100462.31
2022-11-09T07:43:26.494Z,100472.06
2022-11-09T07:46:06.194Z,100478.50
2022-11-09T07:48:34.389Z,100484.16
2022-11-09T07:51:04.370Z,100484.38
2022-11-09T07:53:32.575Z,100482.25
2022-11-09T07:56:02.242Z,100482.72
2022-11-09T07:58:30.999Z,100486.53
2022-11-09T08:00:59.034Z,100486.75
2022-11-09T08:03:27.346Z,100490.34
2022-11-09T08:05:57.621Z,100494.00
2022-11-09T08:08:27.044Z,100494.94
2022-11-09T08:10:57.925Z,100490.16
2022-11-09T08:13:26.349Z,100497.41
2022-11-09T08:15:54.355Z,100486.34
2022-11-09T08:18:23.986Z,100483.69
2022-11-09T08:20:53.145Z,100491.03
2022-11-09T08:23:22.315Z,100499.50
2022-11-09T08:25:57.660Z,100491.72
2022-11-09T08:28:32.605Z,100491.72
2022-11-09T08:31:09.011Z,100483.97
2022-11-09T08:33:43.598Z,100496.97
2022-11-09T08:36:38.304Z,100495.66
2022-11-09T08:39:06.503Z,100502.53
2022-11-09T08:41:36.117Z,100501.84
2022-11-09T08:44:04.862Z,100507.50
2022-11-09T08:46:37.012Z,100504.41
2022-11-09T08:49:08.719Z,100508.41
2022-11-09T08:51:37.158Z,100498.50
2022-11-09T08:54:05.816Z,100497.75
2022-11-09T08:56:36.687Z,100500.50
2022-11-09T08:59:05.948Z,100498.81
2022-11-09T09:01:34.395Z,100501.81
2022-11-09T09:04:03.699Z,100492.56
2022-11-09T09:06:32.050Z,100497.19
2022-11-09T09:09:05.313Z,100505.03
2022-11-09T09:11:36.002Z,100499.09
2022-11-09T09:14:05.878Z,100499.25
2022-11-09T09:16:44.659Z,100494.66
2022-11-09T09:19:19.286Z,100497.09
2022-11-09T09:21:54.602Z,100493.13
2022-11-09T09:24:41.555Z,100494.38
2022-11-09T09:27:21.608Z,100490.63
2022-11-09T09:29:49.931Z,100503.25
2022-11-09T09:32:18.469Z,100513.78
2022-11-09T09:34:48.033Z,100501.16
2022-11-09T09:37:17.859Z,100503.91
2022-11-09T09:39:47.015Z,100508.72
2022-11-09T09:42:21.984Z,100503.44
2022-11-09T09:44:56.288Z,100516.91
2022-11-09T09:47:38.451Z,100511.84
2022-11-09T09:50:20.537Z,100509.91
2022-11-09T09:53:23.166Z,100529.44
2022-11-09T09:56:09.003Z,100514.19
2022-11-09T09:59:14.116Z,100528.31
2022-11-09T10:02:02.282Z,100522.47
2022-11-09T10:04:53.231Z,100519.16
2022-11-09T10:07:43.350Z,100543.00
2022-11-09T10:10:54.181Z,100521.34
2022-11-09T10:13:54.408Z,100526.78
2022-11-09T10:16:44.520Z,100533.31
2022-11-09T10:19:40.673Z,100532.66
2022-11-09T10:22:16.755Z,100533.97
2022-11-09T10:27:48.492Z,100533.47
2022-11-09T10:30:17.655Z,100538.94
2022-11-09T10:32:51.852Z,100531.50
2022-11-09T10:35:22.368Z,100535.00
2022-11-09T10:37:52.208Z,100539.44
2022-11-09T10:40:24.250Z,100537.19
2022-11-09T10:43:13.006Z,100542.88
2022-11-09T10:46:05.024Z,100543.88
2022-11-09T10:48:59.972Z,100552.81
2022-11-09T10:52:01.817Z,100529.38
2022-11-09T10:55:01.816Z,100548.41
2022-11-09T10:58:23.257Z,100537.94
2022-11-09T11:01:33.893Z,100540.94
2022-11-09T11:04:34.206Z,100543.59
2022-11-09T11:07:30.765Z,100547.66
2022-11-09T11:10:20.735Z,100543.22
2022-11-09T11:13:23.284Z,100534.91
2022-11-09T11:16:17.684Z,100536.69
2022-11-09T11:19:05.703Z,100544.72
2022-11-09T11:22:19.058Z,100534.91
2022-11-09T11:25:18.914Z,100538.13
2022-11-09T11:28:16.455Z,100547.25
2022-11-09T11:31:04.382Z,100536.81
2022-11-09T11:33:51.181Z,100537.72
2022-11-09T11:36:51.083Z,100543.66
2022-11-09T11:39:59.959Z,100541.84
2022-11-09T11:43:21.457Z,100534.13
2022-11-09T11:46:18.859Z,100537.94
2022-11-09T11:49:40.022Z,100527.94
2022-11-09T11:52:39.964Z,100519.75
2022-11-09T11:55:46.148Z,100535.91
2022-11-09T11:58:50.678Z,100533.19
2022-11-09T12:01:43.506Z,100530.00
2022-11-09T12:04:44.153Z,100536.69
2022-11-09T12:07:39.874Z,100540.84
2022-11-09T12:10:41.579Z,100539.91
2022-11-09T12:13:51.167Z,100535.44
2022-11-09T12:16:42.732Z,100528.97
2022-11-09T12:19:56.021Z,100529.41
2022-11-09T12:22:55.104Z,100527.25
2022-11-09T12:25:51.982Z,100526.78
2022-11-09T12:28:56.280Z,100530.47
2022-11-09T12:32:00.610Z,100520.13
2022-11-09T12:35:08.693Z,100524.13
2022-11-09T12:38:07.232Z,100525.75
2022-11-09T12:41:05.674Z,100515.66
2022-11-09T12:44:19.624Z,100508.69
2022-11-09T12:47:26.889Z,100520.84
2022-11-09T12:50:18.197Z,100516.06
2022-11-09T12:53:07.222Z,100507.53
2022-11-09T12:55:59.494Z,100496.81
2022-11-09T12:58:47.464Z,100510.13
2022-11-09T13:01:54.301Z,100503.88
2022-11-09T13:04:59.680Z,100499.81
2022-11-09T13:07:51.878Z,100515.69
2022-11-09T13:10:40.300Z,100536.44
2022-11-09T13:13:30.938Z,100530.63
2022-11-09T13:16:37.296Z,100524.13
2022-11-09T13:19:56.051Z,100534.97
2022-11-09T13:23:12.833Z,100542.41
2022-11-09T13:26:05.513Z,100549.38
2022-11-09T13:29:23.299Z,100571.31
2022-11-09T13:33:16.903Z,100557.03
2022-11-09T16:31:51.454Z,100770.75
2022-11-09T16:34:40.190Z,100767.34
2022-11-09T16:37:28.685Z,100767.91
2022-11-09T16:40:24.632Z,100773.47
2022-11-09T16:43:17.240Z,100784.22
2022-11-09T16:46:07.644Z,100786.63
2022-11-09T16:49:02.195Z,100791.41
2022-11-09T16:52:00.127Z,100787.13
2022-11-09T16:55:00.198Z,100794.94
2022-11-09T16:57:51.972Z,100801.81
2022-11-09T17:01:03.943Z,100809.69
2022-11-09T17:03:45.459Z,100809.84
2022-11-09T17:06:35.852Z,100817.00
2022-11-09T17:09:23.503Z,100819.72
2022-11-09T17:12:10.893Z,100832.16
2022-11-09T17:14:57.915Z,100839.53
2022-11-09T17:17:47.123Z,100839.53
2022-11-09T17:20:55.602Z,100842.59
2022-11-09T17:23:44.918Z,100842.44
2022-11-09T17:26:38.552Z,100843.78
2022-11-09T17:30:03.935Z,100859.53
2022-11-09T17:33:14.844Z,100862.03
2022-11-09T17:36:35.424Z,100872.28
2022-11-09T17:39:59.012Z,100881.31
2022-11-09T17:43:13.815Z,100874.47
2022-11-09T17:46:13.344Z,100886.28
2022-11-09T17:48:59.772Z,100886.94
2022-11-09T17:51:46.468Z,100889.16
2022-11-09T17:54:37.149Z,100894.13
2022-11-09T17:57:24.458Z,100899.03
2022-11-09T18:00:12.125Z,100902.31
2022-11-09T18:02:58.331Z,100910.31
2022-11-09T18:05:46.565Z,100912.38
2022-11-09T18:08:33.391Z,100916.31
2022-11-09T18:11:21.446Z,100921.06
2022-11-09T18:14:09.023Z,100920.06
2022-11-09T18:16:56.434Z,100931.63
2022-11-09T18:19:42.994Z,100928.25
2022-11-09T18:22:29.511Z,100937.63
2022-11-09T18:25:17.508Z,100943.41
2022-11-09T18:28:06.142Z,100946.34
2022-11-09T18:30:52.703Z,100936.25
2022-11-09T18:33:40.103Z,100941.53
2022-11-09T18:36:28.051Z,100950.06
2022-11-09T18:39:16.362Z,100953.13
2022-11-09T18:42:03.276Z,100968.03
2022-11-09T18:44:51.253Z,100962.38
2022-11-09T18:47:38.011Z,100970.03
2022-11-09T18:50:25.240Z,100971.06
2022-11-09T18:53:12.051Z,100981.13
2022-11-09T18:56:06.300Z,100991.34
2022-11-09T18:58:55.950Z,100996.81
2022-11-09T19:01:44.067Z,101003.31
2022-11-09T19:04:30.751Z,101010.97
2022-11-09T19:07:17.320Z,101003.66
2022-11-09T19:10:03.973Z,101012.84
2022-11-09T19:12:51.925Z,101017.81
2022-11-09T19:15:43.528Z,101029.25
2022-11-09T19:18:31.996Z,101030.47
2022-11-09T19:21:35.814Z,101043.41
2022-11-09T19:24:24.756Z,101039.50
2022-11-09T19:27:11.475Z,101048.31
2022-11-09T19:29:58.509Z,101043.94
2022-11-09T19:32:45.080Z,101051.78
2022-11-09T19:35:34.055Z,101050.59
2022-11-09T19:38:24.507Z,101057.72
2022-11-09T19:41:11.657Z,101057.22
2022-11-09T19:43:59.814Z,101065.03
2022-11-09T19:46:46.417Z,101070.50
2022-11-09T19:49:32.861Z,101068.28
2022-11-09T19:52:21.291Z,101072.22
2022-11-09T19:55:09.510Z,101076.66
2022-11-09T19:57:57.189Z,101086.88
2022-11-09T20:00:43.761Z,101088.69
2022-11-09T20:03:34.508Z,101099.66
2022-11-09T20:06:25.113Z,101106.06
2022-11-09T20:09:15.262Z,101107.81
2022-11-09T20:12:19.596Z,101123.69
2022-11-09T20:15:06.714Z,101117.75
2022-11-09T20:17:53.348Z,101112.78
2022-11-09T20:20:39.907Z,101137.34
2022-11-09T20:23:28.848Z,101122.19
2022-11-09T20:26:19.958Z,101134.94
2022-11-09T20:29:07.667Z,101143.41
2022-11-09T20:31:54.361Z,101137.56
2022-11-09T20:34:41.106Z,101149.59
2022-11-09T20:37:27.809Z,101150.97
2022-11-09T20:40:16.635Z,101158.28
2022-11-09T20:43:10.509Z,101165.97
2022-11-09T20:45:57.750Z,101172.19
2022-11-09T20:48:54.219Z,101169.22
2022-11-09T20:51:46.493Z,101180.16
2022-11-09T20:54:35.689Z,101179.50
2022-11-09T20:57:25.069Z,101185.47
2022-11-09T21:00:23.152Z,101188.34
2022-11-09T21:03:16.299Z,101183.75
2022-11-09T21:06:07.975Z,101186.97
2022-11-09T21:09:05.504Z,101195.69
2022-11-09T21:12:10.354Z,101205.53
2022-11-09T21:14:58.101Z,101203.88
2022-11-09T21:17:53.169Z,101208.00
2022-11-09T21:20:43.321Z,101208.72
2022-11-09T21:23:55.679Z,101217.88
2022-11-09T21:27:00.234Z,101223.31
2022-11-09T21:29:52.793Z,101224.19
2022-11-09T21:32:40.266Z,101221.16
2022-11-09T21:35:31.201Z,101232.53
2022-11-09T21:38:20.756Z,101225.25
2022-11-09T21:41:27.864Z,101230.53
2022-11-09T21:44:17.393Z,101235.53
2022-11-09T21:47:04.798Z,101238.09
2022-11-09T21:49:51.506Z,101244.50
2022-11-09T21:52:39.323Z,101250.66
2022-11-09T21:55:26.380Z,101253.25
2022-11-09T21:58:13.070Z,101264.78
2022-11-09T22:01:01.614Z,101277.66
2022-11-09T22:03:49.091Z,101273.59
2022-11-09T22:06:37.480Z,101281.09
2022-11-09T22:09:29.682Z,101275.16
2022-11-09T22:12:36.779Z,101295.50
2022-11-09T22:15:41.258Z,101289.75
2022-11-09T22:18:49.889Z,101292.56
2022-11-09T22:21:36.694Z,101306.06
2022-11-09T22:24:23.332Z,101319.97
2022-11-09T22:27:11.380Z,101319.00
2022-11-09T22:29:57.708Z,101330.53
2022-11-09T22:32:44.288Z,101312.84
2022-11-09T22:35:30.974Z,101300.88
2022-11-09T22:38:17.887Z,101302.72
2022-11-09T22:41:06.874Z,101302.53
2022-11-09T22:43:56.532Z,101313.28
2022-11-09T22:46:55.987Z,101312.00
2022-11-09T22:49:42.432Z,101310.38
2022-11-09T22:52:29.070Z,101310.94
2022-11-09T22:55:15.446Z,101318.66
2022-11-09T22:58:02.448Z,101326.13
2022-11-09T23:00:51.711Z,101333.28
2022-11-09T23:03:39.016Z,101337.97
2022-11-09T23:06:26.183Z,101341.66
2022-11-09T23:09:16.069Z,101342.59
2022-11-09T23:12:02.952Z,101346.38
2022-11-09T23:15:13.131Z,101349.44
2022-11-09T23:18:21.523Z,101357.00
2022-11-09T23:21:08.512Z,101345.69
2022-11-09T23:23:57.492Z,101350.13
2022-11-09T23:26:43.872Z,101346.94
2022-11-09T23:29:30.397Z,101355.44
2022-11-09T23:32:16.842Z,101357.47
2022-11-09T23:35:05.853Z,101355.75
2022-11-09T23:37:58.987Z,101355.22
2022-11-09T23:40:45.501Z,101363.41
2022-11-09T23:43:32.160Z,101369.84
2022-11-09T23:46:20.024Z,101375.84
2022-11-09T23:49:07.583Z,101392.38
2022-11-09T23:51:55.576Z,101405.47
2022-11-09T23:54:42.545Z,101391.75
2022-11-09T23:57:29.368Z,101383.03
